首页
METAR-TAF:

METAR-TAF

机场 :

格拉茨, 奥地利

纬度: 47-00N, 经度: 015-26E, 海拔: 340米

当前天气观测

该预报发布于30分钟前的15:50 UTC
风速11节,风向北转东北
温度 11°C
湿度 32%
气压 1031 hPa
能见度10公里或以上
少量云层高于6000英尺

METAR: LOWG 271550Z 02011KT 9999 FEW060 11/M05 Q1031 NOSIG

时间: 17:20 (16:20 UTC)

预报

该预报发布于5小时和5分钟前的11:15 UTC
预报有效从27日的 12点(UTC)到 28日的 12点(UTC)
风速5节,风向
能见度10公里或以上
1500米以下无云,无积雨云
短暂存在
从 27日的 12点(UTC)到 27日的 16点(UTC)
风速8节,风向
几率 30% :
短暂存在
从 28日的 03点(UTC)到 28日的 07点(UTC)
能見度: 0400
碎片雾

TAF: LOWG 271115Z 2712/2812 35005KT CAVOK TX11/2714Z TNM02/2806Z TEMPO 2712/2716 35008KT PROB30 TEMPO 2803/2807 0400 BCFG

超过4000个机场的气象观测和天气预报(METAR&TAF报告)。

可查询的气象台以黄色和红色小点在地图上表示。

将鼠标移到小点上方,可查看气象台名称。

然后点击查看天气观测和预报。

如需切换地图:点击带黑十字的绿色按钮放大地图;点击带横线的绿色按钮缩小地图;或者点击绿色箭头查看邻近地区的地图。


METAR-TAF: